MAS786 WMKK-VTSP
Flight info
| Callsign | MAS786 |
|---|---|
| Flight time | N/A |
| Altitude | 36000 |
| Route | BIKDU1E BIKDU Y501 VIH R325 RINBA Y502 DUBAX R325 URGAD URGAD1D |
| Aircraft | B738/M-SDE2E3FGHIRWXY/LB1 |
Departure
| Time | 2026-05-01 15:26 |
|---|---|
| Airport | Kuala Lumpur International Airport (WMKK) |
Arrival
| Time | N/A |
|---|---|
| Airport | Phuket International Airport (VTSP) |
| Time | Latitude | Longitude | Altitude | Speed | Heading |
|---|---|---|---|---|---|
| 2026-05-01 14:48 | 2.75397 | 101.70843 | 72 ft | 0 kts | 326° |
| 2026-05-01 15:12 | 2.75383 | 101.70853 | 62 ft | 4 kts | 326° |
| 2026-05-01 15:13 | 2.75319 | 101.70874 | 68 ft | 4 kts | 50° |
| 2026-05-01 15:14 | 2.75308 | 101.70859 | 62 ft | 0 kts | 56° |
| 2026-05-01 15:19 | 2.75330 | 101.70892 | 64 ft | 10 kts | 56° |
| 2026-05-01 15:19 | 2.75372 | 101.70955 | 69 ft | 11 kts | 56° |
| 2026-05-01 15:20 | 2.75454 | 101.71078 | 68 ft | 10 kts | 56° |
| 2026-05-01 15:20 | 2.75492 | 101.71136 | 72 ft | 10 kts | 56° |
| 2026-05-01 15:20 | 2.75530 | 101.71193 | 68 ft | 10 kts | 56° |
| 2026-05-01 15:21 | 2.75568 | 101.71249 | 69 ft | 10 kts | 56° |
| 2026-05-01 15:21 | 2.75605 | 101.71305 | 63 ft | 11 kts | 56° |
| 2026-05-01 15:21 | 2.75649 | 101.71378 | 66 ft | 13 kts | 72° |
| 2026-05-01 15:21 | 2.75613 | 101.71454 | 72 ft | 13 kts | 139° |
| 2026-05-01 15:22 | 2.75474 | 101.71551 | 69 ft | 12 kts | 146° |
| 2026-05-01 15:22 | 2.75404 | 101.71597 | 69 ft | 12 kts | 148° |
| 2026-05-01 15:22 | 2.75326 | 101.71649 | 70 ft | 15 kts | 146° |
| 2026-05-01 15:23 | 2.75237 | 101.71708 | 72 ft | 16 kts | 146° |
| 2026-05-01 15:23 | 2.75141 | 101.71774 | 65 ft | 18 kts | 146° |
| 2026-05-01 15:23 | 2.75040 | 101.71840 | 70 ft | 17 kts | 147° |
| 2026-05-01 15:23 | 2.74942 | 101.71905 | 73 ft | 16 kts | 147° |
| 2026-05-01 15:24 | 2.74849 | 101.71967 | 78 ft | 16 kts | 146° |
| 2026-05-01 15:24 | 2.74766 | 101.72034 | 78 ft | 15 kts | 112° |
| 2026-05-01 15:24 | 2.74787 | 101.72118 | 74 ft | 11 kts | 53° |
| 2026-05-01 15:24 | 2.74840 | 101.72174 | 75 ft | 11 kts | 22° |
| 2026-05-01 15:25 | 2.74911 | 101.72156 | 75 ft | 11 kts | 329° |
| 2026-05-01 15:25 | 2.74944 | 101.72135 | 73 ft | 0 kts | 326° |
| 2026-05-01 15:25 | 2.74985 | 101.72108 | 68 ft | 30 kts | 326° |
| 2026-05-01 15:25 | 2.75402 | 101.71829 | 70 ft | 113 kts | 326° |
| 2026-05-01 15:26 | 2.76256 | 101.71263 | 111 ft | 177 kts | 327° |
| 2026-05-01 15:26 | 2.77311 | 101.70489 | 791 ft | 193 kts | 323° |
| 2026-05-01 15:26 | 2.78426 | 101.69689 | 1695 ft | 200 kts | 327° |
| 2026-05-01 15:26 | 2.79573 | 101.68907 | 2536 ft | 204 kts | 331° |
| 2026-05-01 15:27 | 2.80810 | 101.68370 | 3345 ft | 194 kts | 348° |
| 2026-05-01 15:27 | 2.82032 | 101.68163 | 4543 ft | 164 kts | 352° |
| 2026-05-01 15:27 | 2.83232 | 101.67841 | 4873 ft | 195 kts | 342° |
| 2026-05-01 15:28 | 2.86153 | 101.66734 | 5026 ft | 253 kts | 341° |
| 2026-05-01 15:28 | 2.87819 | 101.66114 | 5015 ft | 257 kts | 341° |
| 2026-05-01 15:28 | 2.89500 | 101.65497 | 5024 ft | 258 kts | 341° |
| 2026-05-01 15:29 | 2.92989 | 101.65651 | 5877 ft | 271 kts | 29° |
| 2026-05-01 15:29 | 2.94628 | 101.66583 | 6516 ft | 278 kts | 32° |
| 2026-05-01 15:29 | 2.97983 | 101.68572 | 8054 ft | 283 kts | 32° |
| 2026-05-01 15:30 | 3.01423 | 101.70599 | 9547 ft | 290 kts | 32° |
| 2026-05-01 15:31 | 3.09041 | 101.75041 | 11028 ft | 350 kts | 31° |
| 2026-05-01 15:31 | 3.13287 | 101.77507 | 12306 ft | 355 kts | 31° |
| 2026-05-01 15:32 | 3.17392 | 101.80274 | 13528 ft | 359 kts | 50° |
| 2026-05-01 15:32 | 3.20231 | 101.84398 | 14687 ft | 362 kts | 57° |
| 2026-05-01 15:33 | 3.25492 | 101.89762 | 16240 ft | 377 kts | 21° |
| 2026-05-01 15:34 | 3.33122 | 101.88418 | 17771 ft | 401 kts | 322° |